sensor_id;sensor_type;location;lat;lon;timestamp;P1;durP1;ratioP1;P2;durP2;ratioP2
2452;SDS011;63678;47.994;7.854;2023-03-04T00:00:39;82.82;;;34.47;;
2452;SDS011;63678;47.994;7.854;2023-03-04T00:03:15;74.90;;;35.45;;
2452;SDS011;63678;47.994;7.854;2023-03-04T00:05:47;79.07;;;33.33;;
2452;SDS011;63678;47.994;7.854;2023-03-04T00:08:20;80.30;;;33.93;;
2452;SDS011;63678;47.994;7.854;2023-03-04T00:10:52;81.43;;;33.03;;
2452;SDS011;63678;47.994;7.854;2023-03-04T00:13:24;82.93;;;34.53;;
2452;SDS011;63678;47.994;7.854;2023-03-04T00:15:56;83.20;;;33.65;;
2452;SDS011;63678;47.994;7.854;2023-03-04T00:18:28;79.80;;;32.70;;
2452;SDS011;63678;47.994;7.854;2023-03-04T00:21:01;78.67;;;31.97;;
2452;SDS011;63678;47.994;7.854;2023-03-04T00:23:33;83.43;;;34.65;;
2452;SDS011;63678;47.994;7.854;2023-03-04T00:26:06;75.72;;;32.53;;
2452;SDS011;63678;47.994;7.854;2023-03-04T00:28:41;77.43;;;32.97;;
2452;SDS011;63678;47.994;7.854;2023-03-04T00:31:13;79.80;;;32.55;;
2452;SDS011;63678;47.994;7.854;2023-03-04T00:33:46;81.23;;;32.60;;
2452;SDS011;63678;47.994;7.854;2023-03-04T00:36:18;78.15;;;33.67;;
2452;SDS011;63678;47.994;7.854;2023-03-04T00:38:51;75.40;;;32.83;;
2452;SDS011;63678;47.994;7.854;2023-03-04T00:41:23;78.43;;;33.20;;
2452;SDS011;63678;47.994;7.854;2023-03-04T00:43:56;77.65;;;31.52;;
2452;SDS011;63678;47.994;7.854;2023-03-04T00:46:28;84.37;;;33.17;;
2452;SDS011;63678;47.994;7.854;2023-03-04T00:49:01;84.93;;;32.88;;
2452;SDS011;63678;47.994;7.854;2023-03-04T00:51:33;72.00;;;30.75;;
2452;SDS011;63678;47.994;7.854;2023-03-04T00:54:05;85.30;;;34.00;;
2452;SDS011;63678;47.994;7.854;2023-03-04T00:56:37;80.90;;;32.67;;
2452;SDS011;63678;47.994;7.854;2023-03-04T00:59:10;86.53;;;34.70;;
2452;SDS011;63678;47.994;7.854;2023-03-04T01:01:42;86.25;;;33.03;;
2452;SDS011;63678;47.994;7.854;2023-03-04T01:04:14;91.43;;;35.33;;
2452;SDS011;63678;47.994;7.854;2023-03-04T01:06:47;83.03;;;32.58;;
2452;SDS011;63678;47.994;7.854;2023-03-04T01:09:20;83.22;;;34.70;;
2452;SDS011;63678;47.994;7.854;2023-03-04T01:11:52;80.50;;;34.40;;
2452;SDS011;63678;47.994;7.854;2023-03-04T01:14:24;91.20;;;34.53;;
2452;SDS011;63678;47.994;7.854;2023-03-04T01:16:59;79.15;;;32.30;;
2452;SDS011;63678;47.994;7.854;2023-03-04T01:19:32;85.78;;;31.95;;
2452;SDS011;63678;47.994;7.854;2023-03-04T01:22:04;78.72;;;32.20;;
2452;SDS011;63678;47.994;7.854;2023-03-04T01:24:38;73.77;;;30.73;;
2452;SDS011;63678;47.994;7.854;2023-03-04T01:27:10;78.15;;;31.67;;
2452;SDS011;63678;47.994;7.854;2023-03-04T01:30:04;81.00;;;33.88;;
2452;SDS011;63678;47.994;7.854;2023-03-04T01:32:37;81.72;;;31.80;;
2452;SDS011;63678;47.994;7.854;2023-03-04T01:35:10;78.13;;;32.33;;
2452;SDS011;63678;47.994;7.854;2023-03-04T01:37:43;75.87;;;31.53;;
2452;SDS011;63678;47.994;7.854;2023-03-04T01:40:15;78.97;;;31.95;;
2452;SDS011;63678;47.994;7.854;2023-03-04T01:43:17;74.60;;;32.75;;
2452;SDS011;63678;47.994;7.854;2023-03-04T01:46:15;81.55;;;34.40;;
2452;SDS011;63678;47.994;7.854;2023-03-04T01:48:48;80.88;;;34.05;;
2452;SDS011;63678;47.994;7.854;2023-03-04T01:51:21;86.43;;;35.03;;
2452;SDS011;63678;47.994;7.854;2023-03-04T01:53:54;85.40;;;34.08;;
2452;SDS011;63678;47.994;7.854;2023-03-04T01:56:33;82.63;;;33.22;;
2452;SDS011;63678;47.994;7.854;2023-03-04T01:59:09;81.75;;;32.90;;
2452;SDS011;63678;47.994;7.854;2023-03-04T02:01:45;78.97;;;32.95;;
2452;SDS011;63678;47.994;7.854;2023-03-04T02:04:21;84.67;;;33.53;;
2452;SDS011;63678;47.994;7.854;2023-03-04T02:06:56;77.20;;;32.22;;
2452;SDS011;63678;47.994;7.854;2023-03-04T02:09:31;80.10;;;32.72;;
2452;SDS011;63678;47.994;7.854;2023-03-04T02:12:04;81.43;;;32.75;;
2452;SDS011;63678;47.994;7.854;2023-03-04T02:14:37;90.93;;;34.22;;
2452;SDS011;63678;47.994;7.854;2023-03-04T02:17:13;82.17;;;32.73;;
2452;SDS011;63678;47.994;7.854;2023-03-04T02:19:55;79.03;;;32.13;;
2452;SDS011;63678;47.994;7.854;2023-03-04T02:22:56;75.68;;;32.95;;
2452;SDS011;63678;47.994;7.854;2023-03-04T02:28:53;82.50;;;32.15;;
2452;SDS011;63678;47.994;7.854;2023-03-04T02:31:31;86.87;;;33.20;;
2452;SDS011;63678;47.994;7.854;2023-03-04T02:34:14;86.15;;;34.00;;
2452;SDS011;63678;47.994;7.854;2023-03-04T02:36:56;85.82;;;31.92;;
2452;SDS011;63678;47.994;7.854;2023-03-04T02:39:33;85.35;;;33.28;;
2452;SDS011;63678;47.994;7.854;2023-03-04T02:42:10;87.75;;;33.17;;
2452;SDS011;63678;47.994;7.854;2023-03-04T02:44:44;84.57;;;34.20;;
2452;SDS011;63678;47.994;7.854;2023-03-04T02:47:19;89.22;;;34.22;;
2452;SDS011;63678;47.994;7.854;2023-03-04T02:49:52;91.28;;;34.05;;
2452;SDS011;63678;47.994;7.854;2023-03-04T02:52:25;79.45;;;34.17;;
2452;SDS011;63678;47.994;7.854;2023-03-04T02:54:57;82.53;;;32.50;;
2452;SDS011;63678;47.994;7.854;2023-03-04T02:57:30;85.83;;;32.63;;
2452;SDS011;63678;47.994;7.854;2023-03-04T03:00:02;79.00;;;31.58;;
2452;SDS011;63678;47.994;7.854;2023-03-04T03:02:39;78.20;;;33.72;;
2452;SDS011;63678;47.994;7.854;2023-03-04T03:05:12;82.20;;;34.22;;
2452;SDS011;63678;47.994;7.854;2023-03-04T03:07:44;78.82;;;35.25;;
2452;SDS011;63678;47.994;7.854;2023-03-04T03:10:38;85.00;;;33.27;;
2452;SDS011;63678;47.994;7.854;2023-03-04T03:13:11;81.97;;;32.65;;
2452;SDS011;63678;47.994;7.854;2023-03-04T03:15:44;82.05;;;32.95;;
2452;SDS011;63678;47.994;7.854;2023-03-04T03:18:19;87.80;;;32.58;;
2452;SDS011;63678;47.994;7.854;2023-03-04T03:20:52;75.75;;;31.52;;
2452;SDS011;63678;47.994;7.854;2023-03-04T03:23:24;81.33;;;31.73;;
2452;SDS011;63678;47.994;7.854;2023-03-04T03:25:57;68.97;;;29.33;;
2452;SDS011;63678;47.994;7.854;2023-03-04T03:28:31;79.55;;;31.27;;
2452;SDS011;63678;47.994;7.854;2023-03-04T03:31:25;84.25;;;31.90;;
2452;SDS011;63678;47.994;7.854;2023-03-04T03:33:58;78.95;;;32.17;;
2452;SDS011;63678;47.994;7.854;2023-03-04T03:36:31;82.57;;;33.47;;
2452;SDS011;63678;47.994;7.854;2023-03-04T03:39:03;86.57;;;35.85;;
2452;SDS011;63678;47.994;7.854;2023-03-04T03:41:38;91.22;;;37.15;;
2452;SDS011;63678;47.994;7.854;2023-03-04T03:44:11;87.10;;;35.55;;
2452;SDS011;63678;47.994;7.854;2023-03-04T03:46:43;82.18;;;32.90;;
2452;SDS011;63678;47.994;7.854;2023-03-04T03:49:17;73.90;;;30.97;;
2452;SDS011;63678;47.994;7.854;2023-03-04T03:51:49;68.85;;;30.05;;
2452;SDS011;63678;47.994;7.854;2023-03-04T03:54:22;71.07;;;30.05;;
2452;SDS011;63678;47.994;7.854;2023-03-04T03:56:54;73.28;;;30.67;;
2452;SDS011;63678;47.994;7.854;2023-03-04T03:59:27;76.60;;;30.42;;
2452;SDS011;63678;47.994;7.854;2023-03-04T04:01:59;76.07;;;31.27;;
2452;SDS011;63678;47.994;7.854;2023-03-04T04:04:32;72.13;;;29.80;;
2452;SDS011;63678;47.994;7.854;2023-03-04T04:07:04;77.75;;;31.13;;
2452;SDS011;63678;47.994;7.854;2023-03-04T04:09:55;82.20;;;31.05;;
2452;SDS011;63678;47.994;7.854;2023-03-04T04:12:28;83.55;;;33.45;;
2452;SDS011;63678;47.994;7.854;2023-03-04T04:15:01;83.87;;;31.33;;
2452;SDS011;63678;47.994;7.854;2023-03-04T04:17:33;79.50;;;32.38;;
2452;SDS011;63678;47.994;7.854;2023-03-04T04:20:09;76.32;;;31.27;;
2452;SDS011;63678;47.994;7.854;2023-03-04T04:22:42;71.95;;;29.08;;
2452;SDS011;63678;47.994;7.854;2023-03-04T04:25:15;82.15;;;31.33;;
2452;SDS011;63678;47.994;7.854;2023-03-04T04:28:07;72.67;;;29.63;;
2452;SDS011;63678;47.994;7.854;2023-03-04T04:30:41;79.93;;;29.90;;
2452;SDS011;63678;47.994;7.854;2023-03-04T04:33:13;71.32;;;30.73;;
2452;SDS011;63678;47.994;7.854;2023-03-04T04:35:46;69.50;;;28.50;;
2452;SDS011;63678;47.994;7.854;2023-03-04T04:38:18;71.65;;;30.27;;
2452;SDS011;63678;47.994;7.854;2023-03-04T04:40:55;79.73;;;29.63;;
2452;SDS011;63678;47.994;7.854;2023-03-04T04:43:28;71.93;;;30.80;;
2452;SDS011;63678;47.994;7.854;2023-03-04T04:46:01;76.43;;;31.50;;
2452;SDS011;63678;47.994;7.854;2023-03-04T04:48:33;78.32;;;32.33;;
2452;SDS011;63678;47.994;7.854;2023-03-04T04:51:06;73.45;;;31.55;;
2452;SDS011;63678;47.994;7.854;2023-03-04T04:53:38;80.10;;;30.83;;
2452;SDS011;63678;47.994;7.854;2023-03-04T04:56:16;71.72;;;29.60;;
2452;SDS011;63678;47.994;7.854;2023-03-04T04:58:52;71.75;;;29.95;;
2452;SDS011;63678;47.994;7.854;2023-03-04T05:01:28;69.28;;;30.23;;
2452;SDS011;63678;47.994;7.854;2023-03-04T05:04:19;71.70;;;29.88;;
2452;SDS011;63678;47.994;7.854;2023-03-04T05:06:52;74.03;;;30.00;;
2452;SDS011;63678;47.994;7.854;2023-03-04T05:09:25;73.03;;;28.75;;
2452;SDS011;63678;47.994;7.854;2023-03-04T05:12:16;68.15;;;28.17;;
2452;SDS011;63678;47.994;7.854;2023-03-04T05:14:48;65.82;;;29.92;;
2452;SDS011;63678;47.994;7.854;2023-03-04T05:17:21;73.63;;;29.48;;
2452;SDS011;63678;47.994;7.854;2023-03-04T05:19:53;70.10;;;28.97;;
2452;SDS011;63678;47.994;7.854;2023-03-04T05:22:43;72.40;;;28.27;;
2452;SDS011;63678;47.994;7.854;2023-03-04T05:25:16;67.07;;;28.52;;
2452;SDS011;63678;47.994;7.854;2023-03-04T05:27:48;68.22;;;29.25;;
2452;SDS011;63678;47.994;7.854;2023-03-04T05:30:20;72.22;;;30.48;;
2452;SDS011;63678;47.994;7.854;2023-03-04T05:32:55;79.23;;;30.77;;
2452;SDS011;63678;47.994;7.854;2023-03-04T05:35:28;78.45;;;28.65;;
2452;SDS011;63678;47.994;7.854;2023-03-04T05:38:01;75.25;;;29.27;;
2452;SDS011;63678;47.994;7.854;2023-03-04T05:40:35;71.97;;;29.75;;
2452;SDS011;63678;47.994;7.854;2023-03-04T05:43:08;71.50;;;30.25;;
2452;SDS011;63678;47.994;7.854;2023-03-04T05:45:41;75.13;;;29.40;;
2452;SDS011;63678;47.994;7.854;2023-03-04T05:48:13;73.85;;;30.00;;
2452;SDS011;63678;47.994;7.854;2023-03-04T05:50:46;73.38;;;27.85;;
2452;SDS011;63678;47.994;7.854;2023-03-04T05:53:18;75.20;;;31.58;;
2452;SDS011;63678;47.994;7.854;2023-03-04T05:55:51;85.28;;;32.97;;
2452;SDS011;63678;47.994;7.854;2023-03-04T05:58:23;82.43;;;32.50;;
2452;SDS011;63678;47.994;7.854;2023-03-04T06:00:59;77.43;;;31.85;;
2452;SDS011;63678;47.994;7.854;2023-03-04T06:03:32;71.60;;;29.58;;
2452;SDS011;63678;47.994;7.854;2023-03-04T06:06:05;67.85;;;29.90;;
2452;SDS011;63678;47.994;7.854;2023-03-04T06:08:37;67.70;;;29.95;;
2452;SDS011;63678;47.994;7.854;2023-03-04T06:11:10;77.20;;;32.43;;
2452;SDS011;63678;47.994;7.854;2023-03-04T06:13:42;78.65;;;31.85;;
2452;SDS011;63678;47.994;7.854;2023-03-04T06:16:15;76.13;;;30.77;;
2452;SDS011;63678;47.994;7.854;2023-03-04T06:18:48;82.50;;;32.92;;
2452;SDS011;63678;47.994;7.854;2023-03-04T06:21:20;73.90;;;31.50;;
2452;SDS011;63678;47.994;7.854;2023-03-04T06:23:53;77.53;;;31.40;;
2452;SDS011;63678;47.994;7.854;2023-03-04T06:26:25;70.22;;;28.50;;
2452;SDS011;63678;47.994;7.854;2023-03-04T06:28:58;74.13;;;29.65;;
2452;SDS011;63678;47.994;7.854;2023-03-04T06:31:49;70.47;;;28.70;;
2452;SDS011;63678;47.994;7.854;2023-03-04T06:34:22;70.20;;;29.10;;
2452;SDS011;63678;47.994;7.854;2023-03-04T06:36:55;74.53;;;30.97;;
2452;SDS011;63678;47.994;7.854;2023-03-04T06:39:27;79.93;;;33.33;;
2452;SDS011;63678;47.994;7.854;2023-03-04T06:41:59;77.78;;;31.98;;
2452;SDS011;63678;47.994;7.854;2023-03-04T06:44:32;78.70;;;32.90;;
2452;SDS011;63678;47.994;7.854;2023-03-04T06:47:05;76.57;;;31.77;;
2452;SDS011;63678;47.994;7.854;2023-03-04T06:49:38;71.57;;;31.57;;
2452;SDS011;63678;47.994;7.854;2023-03-04T06:52:10;74.53;;;31.85;;
2452;SDS011;63678;47.994;7.854;2023-03-04T06:54:44;70.47;;;30.92;;
2452;SDS011;63678;47.994;7.854;2023-03-04T06:57:15;79.68;;;31.20;;
2452;SDS011;63678;47.994;7.854;2023-03-04T06:59:48;76.30;;;29.90;;
2452;SDS011;63678;47.994;7.854;2023-03-04T07:02:20;72.27;;;30.53;;
2452;SDS011;63678;47.994;7.854;2023-03-04T07:04:54;72.30;;;28.77;;
2452;SDS011;63678;47.994;7.854;2023-03-04T07:07:26;72.72;;;28.83;;
2452;SDS011;63678;47.994;7.854;2023-03-04T07:09:58;74.25;;;29.48;;
2452;SDS011;63678;47.994;7.854;2023-03-04T07:12:31;70.90;;;31.38;;
2452;SDS011;63678;47.994;7.854;2023-03-04T07:15:23;67.57;;;29.67;;
2452;SDS011;63678;47.994;7.854;2023-03-04T07:17:55;73.80;;;29.20;;
2452;SDS011;63678;47.994;7.854;2023-03-04T07:20:29;63.20;;;27.35;;
2452;SDS011;63678;47.994;7.854;2023-03-04T07:23:02;63.63;;;27.67;;
2452;SDS011;63678;47.994;7.854;2023-03-04T07:25:34;64.38;;;29.00;;
2452;SDS011;63678;47.994;7.854;2023-03-04T07:28:07;64.30;;;27.57;;
2452;SDS011;63678;47.994;7.854;2023-03-04T07:30:39;65.65;;;29.67;;
2452;SDS011;63678;47.994;7.854;2023-03-04T07:33:12;65.28;;;27.10;;
2452;SDS011;63678;47.994;7.854;2023-03-04T07:35:45;64.93;;;27.23;;
2452;SDS011;63678;47.994;7.854;2023-03-04T07:38:17;68.43;;;29.80;;
2452;SDS011;63678;47.994;7.854;2023-03-04T07:43:35;77.03;;;31.48;;
2452;SDS011;63678;47.994;7.854;2023-03-04T07:46:28;77.13;;;31.95;;
2452;SDS011;63678;47.994;7.854;2023-03-04T07:49:01;75.45;;;30.23;;
2452;SDS011;63678;47.994;7.854;2023-03-04T07:51:33;72.53;;;29.83;;
2452;SDS011;63678;47.994;7.854;2023-03-04T07:54:06;78.10;;;33.73;;
2452;SDS011;63678;47.994;7.854;2023-03-04T07:56:42;88.70;;;34.05;;
2452;SDS011;63678;47.994;7.854;2023-03-04T07:59:14;85.07;;;34.45;;
2452;SDS011;63678;47.994;7.854;2023-03-04T08:01:46;75.57;;;33.53;;
2452;SDS011;63678;47.994;7.854;2023-03-04T08:04:19;85.25;;;32.63;;
2452;SDS011;63678;47.994;7.854;2023-03-04T08:06:51;81.17;;;33.97;;
2452;SDS011;63678;47.994;7.854;2023-03-04T08:09:23;78.75;;;32.10;;
2452;SDS011;63678;47.994;7.854;2023-03-04T08:11:56;79.22;;;32.92;;
2452;SDS011;63678;47.994;7.854;2023-03-04T08:14:29;73.97;;;31.38;;
2452;SDS011;63678;47.994;7.854;2023-03-04T08:17:01;74.07;;;29.77;;
2452;SDS011;63678;47.994;7.854;2023-03-04T08:19:34;79.17;;;31.23;;
2452;SDS011;63678;47.994;7.854;2023-03-04T08:22:06;77.90;;;29.70;;
2452;SDS011;63678;47.994;7.854;2023-03-04T08:24:39;72.97;;;28.27;;
2452;SDS011;63678;47.994;7.854;2023-03-04T08:27:12;73.18;;;26.65;;
2452;SDS011;63678;47.994;7.854;2023-03-04T08:29:44;72.88;;;29.70;;
2452;SDS011;63678;47.994;7.854;2023-03-04T08:32:17;76.10;;;28.30;;
2452;SDS011;63678;47.994;7.854;2023-03-04T08:34:49;74.22;;;28.58;;
2452;SDS011;63678;47.994;7.854;2023-03-04T08:37:22;74.88;;;25.85;;
2452;SDS011;63678;47.994;7.854;2023-03-04T08:39:54;82.97;;;29.88;;
2452;SDS011;63678;47.994;7.854;2023-03-04T08:42:29;67.75;;;27.38;;
2452;SDS011;63678;47.994;7.854;2023-03-04T08:45:02;75.83;;;28.40;;
2452;SDS011;63678;47.994;7.854;2023-03-04T08:47:35;80.95;;;29.63;;
2452;SDS011;63678;47.994;7.854;2023-03-04T08:50:08;84.43;;;29.80;;
2452;SDS011;63678;47.994;7.854;2023-03-04T08:53:00;79.95;;;28.42;;
2452;SDS011;63678;47.994;7.854;2023-03-04T08:55:33;80.78;;;29.42;;
2452;SDS011;63678;47.994;7.854;2023-03-04T08:58:05;73.63;;;26.20;;
2452;SDS011;63678;47.994;7.854;2023-03-04T09:00:40;84.45;;;31.70;;
2452;SDS011;63678;47.994;7.854;2023-03-04T09:03:22;76.13;;;29.85;;
2452;SDS011;63678;47.994;7.854;2023-03-04T09:05:55;84.47;;;29.55;;
2452;SDS011;63678;47.994;7.854;2023-03-04T09:08:27;80.55;;;29.70;;
2452;SDS011;63678;47.994;7.854;2023-03-04T09:11:00;91.90;;;31.90;;
2452;SDS011;63678;47.994;7.854;2023-03-04T09:13:33;85.93;;;30.70;;
2452;SDS011;63678;47.994;7.854;2023-03-04T09:16:12;83.55;;;31.55;;
2452;SDS011;63678;47.994;7.854;2023-03-04T09:18:45;86.78;;;31.05;;
2452;SDS011;63678;47.994;7.854;2023-03-04T09:21:18;84.20;;;29.38;;
2452;SDS011;63678;47.994;7.854;2023-03-04T09:23:50;80.17;;;29.27;;
2452;SDS011;63678;47.994;7.854;2023-03-04T09:26:44;87.60;;;31.45;;
2452;SDS011;63678;47.994;7.854;2023-03-04T09:29:19;83.68;;;30.63;;
2452;SDS011;63678;47.994;7.854;2023-03-04T09:31:57;78.70;;;29.33;;
2452;SDS011;63678;47.994;7.854;2023-03-04T09:34:30;85.90;;;31.13;;
2452;SDS011;63678;47.994;7.854;2023-03-04T09:37:02;83.57;;;30.57;;
2452;SDS011;63678;47.994;7.854;2023-03-04T09:39:35;77.70;;;30.35;;
2452;SDS011;63678;47.994;7.854;2023-03-04T09:42:08;88.72;;;31.65;;
2452;SDS011;63678;47.994;7.854;2023-03-04T09:44:52;82.45;;;31.38;;
2452;SDS011;63678;47.994;7.854;2023-03-04T09:47:26;81.97;;;31.05;;
2452;SDS011;63678;47.994;7.854;2023-03-04T09:50:00;81.33;;;30.53;;
2452;SDS011;63678;47.994;7.854;2023-03-04T09:52:57;78.50;;;28.80;;
2452;SDS011;63678;47.994;7.854;2023-03-04T09:55:56;85.80;;;31.45;;
2452;SDS011;63678;47.994;7.854;2023-03-04T10:01:33;77.68;;;29.42;;
2452;SDS011;63678;47.994;7.854;2023-03-04T10:04:13;79.40;;;30.30;;
2452;SDS011;63678;47.994;7.854;2023-03-04T10:06:54;69.22;;;26.23;;
2452;SDS011;63678;47.994;7.854;2023-03-04T10:09:29;91.05;;;32.92;;
2452;SDS011;63678;47.994;7.854;2023-03-04T10:12:20;76.30;;;30.48;;
2452;SDS011;63678;47.994;7.854;2023-03-04T10:15:01;93.82;;;32.05;;
2452;SDS011;63678;47.994;7.854;2023-03-04T10:17:51;84.17;;;31.43;;
2452;SDS011;63678;47.994;7.854;2023-03-04T10:20:45;77.75;;;29.95;;
2452;SDS011;63678;47.994;7.854;2023-03-04T10:23:33;82.30;;;31.70;;
2452;SDS011;63678;47.994;7.854;2023-03-04T10:26:28;88.70;;;31.48;;
2452;SDS011;63678;47.994;7.854;2023-03-04T10:29:03;73.72;;;29.45;;
2452;SDS011;63678;47.994;7.854;2023-03-04T10:31:37;78.80;;;30.57;;
2452;SDS011;63678;47.994;7.854;2023-03-04T10:34:13;79.38;;;29.92;;
2452;SDS011;63678;47.994;7.854;2023-03-04T10:39:40;154.43;;;51.63;;
2452;SDS011;63678;47.994;7.854;2023-03-04T10:47:30;77.13;;;30.55;;
2452;SDS011;63678;47.994;7.854;2023-03-04T10:50:03;76.80;;;29.05;;
2452;SDS011;63678;47.994;7.854;2023-03-04T10:55:17;70.18;;;28.48;;
2452;SDS011;63678;47.994;7.854;2023-03-04T10:58:01;78.93;;;28.70;;
2452;SDS011;63678;47.994;7.854;2023-03-04T11:00:38;75.10;;;27.20;;
2452;SDS011;63678;47.994;7.854;2023-03-04T11:03:24;74.38;;;29.00;;
2452;SDS011;63678;47.994;7.854;2023-03-04T11:06:11;81.07;;;30.27;;
2452;SDS011;63678;47.994;7.854;2023-03-04T11:08:53;81.53;;;30.10;;
2452;SDS011;63678;47.994;7.854;2023-03-04T11:11:36;76.43;;;29.67;;
2452;SDS011;63678;47.994;7.854;2023-03-04T11:14:36;70.20;;;28.00;;
2452;SDS011;63678;47.994;7.854;2023-03-04T11:17:21;75.93;;;29.52;;
2452;SDS011;63678;47.994;7.854;2023-03-04T11:20:08;70.40;;;27.52;;
2452;SDS011;63678;47.994;7.854;2023-03-04T11:23:11;70.15;;;28.13;;
2452;SDS011;63678;47.994;7.854;2023-03-04T11:25:57;74.17;;;28.50;;
2452;SDS011;63678;47.994;7.854;2023-03-04T11:28:40;75.85;;;28.70;;
2452;SDS011;63678;47.994;7.854;2023-03-04T11:31:33;75.47;;;30.30;;
2452;SDS011;63678;47.994;7.854;2023-03-04T11:40:10;67.33;;;29.00;;
2452;SDS011;63678;47.994;7.854;2023-03-04T11:43:01;64.95;;;27.00;;
2452;SDS011;63678;47.994;7.854;2023-03-04T11:55:28;68.80;;;28.17;;
2452;SDS011;63678;47.994;7.854;2023-03-04T12:01:33;69.60;;;28.75;;
2452;SDS011;63678;47.994;7.854;2023-03-04T12:05:08;69.22;;;28.55;;
2452;SDS011;63678;47.994;7.854;2023-03-04T12:14:25;62.10;;;26.98;;
2452;SDS011;63678;47.994;7.854;2023-03-04T12:29:20;72.22;;;28.35;;
2452;SDS011;63678;47.994;7.854;2023-03-04T12:32:53;61.65;;;26.58;;
2452;SDS011;63678;47.994;7.854;2023-03-04T12:38:52;59.85;;;25.13;;
2452;SDS011;63678;47.994;7.854;2023-03-04T12:57:03;52.33;;;22.97;;
2452;SDS011;63678;47.994;7.854;2023-03-04T12:59:59;60.03;;;24.98;;
2452;SDS011;63678;47.994;7.854;2023-03-04T13:18:01;61.35;;;24.23;;
2452;SDS011;63678;47.994;7.854;2023-03-04T13:23:42;58.10;;;25.33;;
2452;SDS011;63678;47.994;7.854;2023-03-04T13:26:28;57.83;;;25.30;;
2452;SDS011;63678;47.994;7.854;2023-03-04T13:43:17;56.17;;;23.90;;
2452;SDS011;63678;47.994;7.854;2023-03-04T13:45:56;52.65;;;24.02;;
2452;SDS011;63678;47.994;7.854;2023-03-04T13:48:31;51.72;;;23.33;;
2452;SDS011;63678;47.994;7.854;2023-03-04T13:51:13;53.75;;;24.48;;
2452;SDS011;63678;47.994;7.854;2023-03-04T13:56:34;53.50;;;23.35;;
2452;SDS011;63678;47.994;7.854;2023-03-04T13:59:23;53.80;;;24.00;;
2452;SDS011;63678;47.994;7.854;2023-03-04T14:02:18;50.88;;;23.52;;
2452;SDS011;63678;47.994;7.854;2023-03-04T14:07:26;56.42;;;24.13;;
2452;SDS011;63678;47.994;7.854;2023-03-04T14:12:48;54.22;;;24.10;;
2452;SDS011;63678;47.994;7.854;2023-03-04T14:15:29;56.53;;;23.17;;
2452;SDS011;63678;47.994;7.854;2023-03-04T14:18:04;54.60;;;24.27;;
2452;SDS011;63678;47.994;7.854;2023-03-04T14:20:38;51.50;;;23.60;;
2452;SDS011;63678;47.994;7.854;2023-03-04T14:23:30;56.53;;;24.95;;
2452;SDS011;63678;47.994;7.854;2023-03-04T14:26:11;52.25;;;23.65;;
2452;SDS011;63678;47.994;7.854;2023-03-04T14:28:49;49.03;;;20.80;;
2452;SDS011;63678;47.994;7.854;2023-03-04T14:31:23;54.30;;;22.85;;
2452;SDS011;63678;47.994;7.854;2023-03-04T14:34:02;49.83;;;23.27;;
2452;SDS011;63678;47.994;7.854;2023-03-04T14:36:35;49.38;;;22.88;;
2452;SDS011;63678;47.994;7.854;2023-03-04T14:39:12;50.42;;;23.05;;
2452;SDS011;63678;47.994;7.854;2023-03-04T14:41:49;52.78;;;22.45;;
2452;SDS011;63678;47.994;7.854;2023-03-04T14:47:16;56.03;;;23.35;;
2452;SDS011;63678;47.994;7.854;2023-03-04T14:49:55;52.45;;;22.38;;
2452;SDS011;63678;47.994;7.854;2023-03-04T14:58:06;47.33;;;21.35;;
2452;SDS011;63678;47.994;7.854;2023-03-04T15:01:07;45.78;;;20.65;;
2452;SDS011;63678;47.994;7.854;2023-03-04T15:03:55;48.00;;;21.58;;
2452;SDS011;63678;47.994;7.854;2023-03-04T15:06:31;47.08;;;21.10;;
2452;SDS011;63678;47.994;7.854;2023-03-04T15:09:05;48.58;;;21.17;;
2452;SDS011;63678;47.994;7.854;2023-03-04T15:11:50;46.92;;;20.38;;
2452;SDS011;63678;47.994;7.854;2023-03-04T15:17:33;44.95;;;20.27;;
2452;SDS011;63678;47.994;7.854;2023-03-04T15:20:20;50.55;;;21.23;;
2452;SDS011;63678;47.994;7.854;2023-03-04T15:23:02;48.53;;;22.30;;
2452;SDS011;63678;47.994;7.854;2023-03-04T15:25:38;55.22;;;22.65;;
2452;SDS011;63678;47.994;7.854;2023-03-04T15:28:14;48.60;;;22.50;;
2452;SDS011;63678;47.994;7.854;2023-03-04T15:30:49;52.63;;;23.13;;
2452;SDS011;63678;47.994;7.854;2023-03-04T15:33:23;54.78;;;22.10;;
2452;SDS011;63678;47.994;7.854;2023-03-04T15:35:57;60.25;;;23.85;;
2452;SDS011;63678;47.994;7.854;2023-03-04T15:38:33;53.17;;;22.67;;
2452;SDS011;63678;47.994;7.854;2023-03-04T15:41:05;51.07;;;24.30;;
2452;SDS011;63678;47.994;7.854;2023-03-04T15:43:40;57.70;;;25.17;;
2452;SDS011;63678;47.994;7.854;2023-03-04T15:46:12;57.00;;;26.02;;
2452;SDS011;63678;47.994;7.854;2023-03-04T15:48:48;55.88;;;24.85;;
2452;SDS011;63678;47.994;7.854;2023-03-04T15:51:21;57.92;;;23.67;;
2452;SDS011;63678;47.994;7.854;2023-03-04T15:53:54;55.30;;;23.33;;
2452;SDS011;63678;47.994;7.854;2023-03-04T15:56:29;57.65;;;23.88;;
2452;SDS011;63678;47.994;7.854;2023-03-04T15:59:11;58.05;;;24.50;;
2452;SDS011;63678;47.994;7.854;2023-03-04T16:01:46;56.15;;;23.17;;
2452;SDS011;63678;47.994;7.854;2023-03-04T16:04:19;56.33;;;22.92;;
2452;SDS011;63678;47.994;7.854;2023-03-04T16:06:52;57.77;;;24.30;;
2452;SDS011;63678;47.994;7.854;2023-03-04T16:09:29;57.58;;;23.30;;
2452;SDS011;63678;47.994;7.854;2023-03-04T16:12:01;56.88;;;23.35;;
2452;SDS011;63678;47.994;7.854;2023-03-04T16:14:33;53.97;;;23.55;;
2452;SDS011;63678;47.994;7.854;2023-03-04T16:17:08;57.10;;;24.88;;
2452;SDS011;63678;47.994;7.854;2023-03-04T16:19:40;59.23;;;25.20;;
2452;SDS011;63678;47.994;7.854;2023-03-04T16:22:14;56.85;;;24.60;;
2452;SDS011;63678;47.994;7.854;2023-03-04T16:24:50;55.97;;;21.70;;
2452;SDS011;63678;47.994;7.854;2023-03-04T16:27:28;51.85;;;22.50;;
2452;SDS011;63678;47.994;7.854;2023-03-04T16:30:00;59.45;;;23.98;;
2452;SDS011;63678;47.994;7.854;2023-03-04T16:32:33;53.70;;;22.03;;
2452;SDS011;63678;47.994;7.854;2023-03-04T16:35:06;60.20;;;24.30;;
2452;SDS011;63678;47.994;7.854;2023-03-04T16:37:42;61.80;;;25.73;;
2452;SDS011;63678;47.994;7.854;2023-03-04T16:40:19;58.97;;;21.75;;
2452;SDS011;63678;47.994;7.854;2023-03-04T16:42:57;60.17;;;22.15;;
2452;SDS011;63678;47.994;7.854;2023-03-04T16:45:29;60.23;;;24.70;;
2452;SDS011;63678;47.994;7.854;2023-03-04T16:48:03;61.78;;;24.67;;
2452;SDS011;63678;47.994;7.854;2023-03-04T16:50:36;68.32;;;25.73;;
2452;SDS011;63678;47.994;7.854;2023-03-04T16:53:19;63.80;;;24.45;;
2452;SDS011;63678;47.994;7.854;2023-03-04T16:56:12;54.47;;;22.70;;
2452;SDS011;63678;47.994;7.854;2023-03-04T16:58:46;59.90;;;24.60;;
2452;SDS011;63678;47.994;7.854;2023-03-04T17:01:23;62.53;;;23.67;;
2452;SDS011;63678;47.994;7.854;2023-03-04T17:03:59;62.40;;;23.48;;
2452;SDS011;63678;47.994;7.854;2023-03-04T17:06:34;60.25;;;24.75;;
2452;SDS011;63678;47.994;7.854;2023-03-04T17:09:10;61.70;;;23.75;;
2452;SDS011;63678;47.994;7.854;2023-03-04T17:11:42;61.43;;;25.47;;
2452;SDS011;63678;47.994;7.854;2023-03-04T17:14:15;59.47;;;22.55;;
2452;SDS011;63678;47.994;7.854;2023-03-04T17:16:48;65.97;;;25.33;;
2452;SDS011;63678;47.994;7.854;2023-03-04T17:19:41;61.65;;;23.35;;
2452;SDS011;63678;47.994;7.854;2023-03-04T17:22:35;69.60;;;26.13;;
2452;SDS011;63678;47.994;7.854;2023-03-04T17:25:08;62.77;;;24.07;;
2452;SDS011;63678;47.994;7.854;2023-03-04T17:27:42;67.30;;;24.90;;
2452;SDS011;63678;47.994;7.854;2023-03-04T17:30:14;65.45;;;25.27;;
2452;SDS011;63678;47.994;7.854;2023-03-04T17:32:47;65.68;;;24.15;;
2452;SDS011;63678;47.994;7.854;2023-03-04T17:35:22;75.22;;;26.58;;
2452;SDS011;63678;47.994;7.854;2023-03-04T17:38:14;70.33;;;26.33;;